sensor_id;sensor_type;location;lat;lon;timestamp;P1;durP1;ratioP1;P2;durP2;ratioP2
56181;SDS011;51963;46.052;14.544;2023-05-07T00:01:46;6.47;;;4.43;;
56181;SDS011;51963;46.052;14.544;2023-05-07T00:04:12;5.30;;;4.35;;
56181;SDS011;51963;46.052;14.544;2023-05-07T00:06:38;6.78;;;4.28;;
56181;SDS011;51963;46.052;14.544;2023-05-07T00:09:05;7.55;;;4.43;;
56181;SDS011;51963;46.052;14.544;2023-05-07T00:11:32;7.63;;;4.90;;
56181;SDS011;51963;46.052;14.544;2023-05-07T00:13:58;12.00;;;6.75;;
56181;SDS011;51963;46.052;14.544;2023-05-07T00:16:24;7.35;;;5.50;;
56181;SDS011;51963;46.052;14.544;2023-05-07T00:18:49;11.32;;;5.82;;
56181;SDS011;51963;46.052;14.544;2023-05-07T00:21:15;6.10;;;5.25;;
56181;SDS011;51963;46.052;14.544;2023-05-07T00:23:41;7.85;;;5.70;;
56181;SDS011;51963;46.052;14.544;2023-05-07T00:26:07;9.68;;;5.85;;
56181;SDS011;51963;46.052;14.544;2023-05-07T00:28:33;7.53;;;5.40;;
56181;SDS011;51963;46.052;14.544;2023-05-07T00:30:58;7.45;;;5.30;;
56181;SDS011;51963;46.052;14.544;2023-05-07T00:33:24;8.43;;;5.68;;
56181;SDS011;51963;46.052;14.544;2023-05-07T00:35:54;7.50;;;5.07;;
56181;SDS011;51963;46.052;14.544;2023-05-07T00:38:20;7.38;;;5.40;;
56181;SDS011;51963;46.052;14.544;2023-05-07T00:40:46;9.30;;;6.60;;
56181;SDS011;51963;46.052;14.544;2023-05-07T00:43:11;8.60;;;6.13;;
56181;SDS011;51963;46.052;14.544;2023-05-07T00:45:42;9.02;;;5.60;;
56181;SDS011;51963;46.052;14.544;2023-05-07T00:48:08;9.38;;;5.72;;
56181;SDS011;51963;46.052;14.544;2023-05-07T00:50:34;8.77;;;5.88;;
56181;SDS011;51963;46.052;14.544;2023-05-07T00:53:00;8.73;;;5.82;;
56181;SDS011;51963;46.052;14.544;2023-05-07T00:55:26;9.43;;;6.40;;
56181;SDS011;51963;46.052;14.544;2023-05-07T00:57:51;11.18;;;6.35;;
56181;SDS011;51963;46.052;14.544;2023-05-07T01:00:17;9.38;;;6.20;;
56181;SDS011;51963;46.052;14.544;2023-05-07T01:02:44;8.50;;;6.30;;
56181;SDS011;51963;46.052;14.544;2023-05-07T01:05:10;10.32;;;6.00;;
56181;SDS011;51963;46.052;14.544;2023-05-07T01:07:39;9.35;;;5.68;;
56181;SDS011;51963;46.052;14.544;2023-05-07T01:10:07;12.27;;;5.95;;
56181;SDS011;51963;46.052;14.544;2023-05-07T01:12:35;7.90;;;5.63;;
56181;SDS011;51963;46.052;14.544;2023-05-07T01:15:02;9.15;;;5.70;;
56181;SDS011;51963;46.052;14.544;2023-05-07T01:20:08;8.20;;;5.68;;
56181;SDS011;51963;46.052;14.544;2023-05-07T01:22:39;7.65;;;5.40;;
56181;SDS011;51963;46.052;14.544;2023-05-07T01:25:08;11.52;;;5.90;;
56181;SDS011;51963;46.052;14.544;2023-05-07T01:27:37;10.50;;;6.80;;
56181;SDS011;51963;46.052;14.544;2023-05-07T01:30:04;10.65;;;6.20;;
56181;SDS011;51963;46.052;14.544;2023-05-07T01:32:32;9.50;;;6.10;;
56181;SDS011;51963;46.052;14.544;2023-05-07T01:35:03;6.88;;;5.50;;
56181;SDS011;51963;46.052;14.544;2023-05-07T01:37:32;9.13;;;5.43;;
56181;SDS011;51963;46.052;14.544;2023-05-07T01:39:58;8.82;;;5.55;;
56181;SDS011;51963;46.052;14.544;2023-05-07T01:42:26;8.35;;;5.50;;
56181;SDS011;51963;46.052;14.544;2023-05-07T01:44:52;7.32;;;5.47;;
56181;SDS011;51963;46.052;14.544;2023-05-07T01:47:17;8.32;;;5.65;;
56181;SDS011;51963;46.052;14.544;2023-05-07T01:52:11;7.15;;;5.13;;
56181;SDS011;51963;46.052;14.544;2023-05-07T01:54:37;7.78;;;5.82;;
56181;SDS011;51963;46.052;14.544;2023-05-07T01:57:03;17.50;;;10.07;;
56181;SDS011;51963;46.052;14.544;2023-05-07T01:59:29;12.15;;;7.43;;
56181;SDS011;51963;46.052;14.544;2023-05-07T02:01:55;8.75;;;5.93;;
56181;SDS011;51963;46.052;14.544;2023-05-07T02:04:21;10.02;;;6.70;;
56181;SDS011;51963;46.052;14.544;2023-05-07T02:06:47;11.95;;;7.00;;
56181;SDS011;51963;46.052;14.544;2023-05-07T02:09:14;12.45;;;7.20;;
56181;SDS011;51963;46.052;14.544;2023-05-07T02:14:07;9.60;;;5.80;;
56181;SDS011;51963;46.052;14.544;2023-05-07T02:16:33;11.32;;;7.35;;
56181;SDS011;51963;46.052;14.544;2023-05-07T02:18:59;10.32;;;6.97;;
56181;SDS011;51963;46.052;14.544;2023-05-07T02:21:25;9.07;;;6.63;;
56181;SDS011;51963;46.052;14.544;2023-05-07T02:23:50;10.55;;;6.85;;
56181;SDS011;51963;46.052;14.544;2023-05-07T02:26:16;10.18;;;6.78;;
56181;SDS011;51963;46.052;14.544;2023-05-07T02:28:42;9.55;;;6.82;;
56181;SDS011;51963;46.052;14.544;2023-05-07T02:31:10;8.35;;;5.93;;
56181;SDS011;51963;46.052;14.544;2023-05-07T02:33:35;8.75;;;5.97;;
56181;SDS011;51963;46.052;14.544;2023-05-07T02:36:05;9.20;;;6.10;;
56181;SDS011;51963;46.052;14.544;2023-05-07T02:38:38;11.25;;;6.28;;
56181;SDS011;51963;46.052;14.544;2023-05-07T02:41:04;9.70;;;6.03;;
56181;SDS011;51963;46.052;14.544;2023-05-07T02:43:30;10.32;;;6.07;;
56181;SDS011;51963;46.052;14.544;2023-05-07T02:46:06;7.90;;;5.80;;
56181;SDS011;51963;46.052;14.544;2023-05-07T02:48:36;10.13;;;6.68;;
56181;SDS011;51963;46.052;14.544;2023-05-07T02:51:02;11.65;;;6.78;;
56181;SDS011;51963;46.052;14.544;2023-05-07T02:53:29;15.32;;;7.35;;
56181;SDS011;51963;46.052;14.544;2023-05-07T02:55:56;9.30;;;6.78;;
56181;SDS011;51963;46.052;14.544;2023-05-07T02:58:23;11.50;;;6.30;;
56181;SDS011;51963;46.052;14.544;2023-05-07T03:00:49;10.88;;;6.95;;
56181;SDS011;51963;46.052;14.544;2023-05-07T03:03:26;10.45;;;6.53;;
56181;SDS011;51963;46.052;14.544;2023-05-07T03:05:52;9.02;;;6.70;;
56181;SDS011;51963;46.052;14.544;2023-05-07T03:08:20;12.13;;;6.65;;
56181;SDS011;51963;46.052;14.544;2023-05-07T03:10:46;9.73;;;6.60;;
56181;SDS011;51963;46.052;14.544;2023-05-07T03:13:12;14.05;;;7.40;;
56181;SDS011;51963;46.052;14.544;2023-05-07T03:15:38;9.55;;;6.18;;
56181;SDS011;51963;46.052;14.544;2023-05-07T03:18:04;9.07;;;6.15;;
56181;SDS011;51963;46.052;14.544;2023-05-07T03:20:30;9.95;;;6.95;;
56181;SDS011;51963;46.052;14.544;2023-05-07T03:22:57;11.52;;;6.50;;
56181;SDS011;51963;46.052;14.544;2023-05-07T03:25:23;11.38;;;7.40;;
56181;SDS011;51963;46.052;14.544;2023-05-07T03:27:49;11.07;;;7.68;;
56181;SDS011;51963;46.052;14.544;2023-05-07T03:30:18;13.20;;;7.28;;
56181;SDS011;51963;46.052;14.544;2023-05-07T03:32:45;9.85;;;6.55;;
56181;SDS011;51963;46.052;14.544;2023-05-07T03:35:11;9.70;;;6.97;;
56181;SDS011;51963;46.052;14.544;2023-05-07T03:37:38;9.68;;;6.47;;
56181;SDS011;51963;46.052;14.544;2023-05-07T03:40:07;10.98;;;7.15;;
56181;SDS011;51963;46.052;14.544;2023-05-07T03:42:42;10.25;;;6.70;;
56181;SDS011;51963;46.052;14.544;2023-05-07T03:45:08;8.85;;;6.15;;
56181;SDS011;51963;46.052;14.544;2023-05-07T03:47:35;11.10;;;7.05;;
56181;SDS011;51963;46.052;14.544;2023-05-07T03:50:02;9.60;;;6.60;;
56181;SDS011;51963;46.052;14.544;2023-05-07T03:52:27;12.77;;;7.43;;
56181;SDS011;51963;46.052;14.544;2023-05-07T03:54:56;12.45;;;7.53;;
56181;SDS011;51963;46.052;14.544;2023-05-07T03:57:22;11.95;;;7.40;;
56181;SDS011;51963;46.052;14.544;2023-05-07T03:59:48;11.75;;;7.00;;
56181;SDS011;51963;46.052;14.544;2023-05-07T04:02:17;9.57;;;6.88;;
56181;SDS011;51963;46.052;14.544;2023-05-07T04:04:43;13.77;;;8.35;;
56181;SDS011;51963;46.052;14.544;2023-05-07T04:07:09;11.88;;;8.05;;
56181;SDS011;51963;46.052;14.544;2023-05-07T04:09:40;10.52;;;6.90;;
56181;SDS011;51963;46.052;14.544;2023-05-07T04:12:05;14.75;;;7.25;;
56181;SDS011;51963;46.052;14.544;2023-05-07T04:14:32;13.20;;;7.10;;
56181;SDS011;51963;46.052;14.544;2023-05-07T04:16:59;9.95;;;6.68;;
56181;SDS011;51963;46.052;14.544;2023-05-07T04:19:25;9.32;;;6.78;;
56181;SDS011;51963;46.052;14.544;2023-05-07T04:21:58;9.98;;;6.60;;
56181;SDS011;51963;46.052;14.544;2023-05-07T04:24:24;12.23;;;7.70;;
56181;SDS011;51963;46.052;14.544;2023-05-07T04:26:50;10.50;;;6.65;;
56181;SDS011;51963;46.052;14.544;2023-05-07T04:29:17;13.50;;;7.68;;
56181;SDS011;51963;46.052;14.544;2023-05-07T04:31:43;9.68;;;6.95;;
56181;SDS011;51963;46.052;14.544;2023-05-07T04:34:14;8.57;;;6.05;;
56181;SDS011;51963;46.052;14.544;2023-05-07T04:36:40;8.75;;;6.20;;
56181;SDS011;51963;46.052;14.544;2023-05-07T04:39:10;9.40;;;7.32;;
56181;SDS011;51963;46.052;14.544;2023-05-07T04:41:37;8.65;;;6.85;;
56181;SDS011;51963;46.052;14.544;2023-05-07T04:44:04;12.35;;;7.38;;
56181;SDS011;51963;46.052;14.544;2023-05-07T04:46:32;11.52;;;7.65;;
56181;SDS011;51963;46.052;14.544;2023-05-07T04:48:58;11.25;;;7.35;;
56181;SDS011;51963;46.052;14.544;2023-05-07T04:51:24;11.32;;;7.35;;
56181;SDS011;51963;46.052;14.544;2023-05-07T04:53:50;11.75;;;6.75;;
56181;SDS011;51963;46.052;14.544;2023-05-07T04:56:16;10.00;;;6.20;;
56181;SDS011;51963;46.052;14.544;2023-05-07T04:58:44;8.98;;;5.88;;
56181;SDS011;51963;46.052;14.544;2023-05-07T05:01:10;8.75;;;6.68;;
56181;SDS011;51963;46.052;14.544;2023-05-07T05:03:37;11.30;;;6.53;;
56181;SDS011;51963;46.052;14.544;2023-05-07T05:06:04;8.97;;;5.93;;
56181;SDS011;51963;46.052;14.544;2023-05-07T05:08:33;10.60;;;5.85;;
56181;SDS011;51963;46.052;14.544;2023-05-07T05:11:01;8.73;;;5.97;;
56181;SDS011;51963;46.052;14.544;2023-05-07T05:13:28;8.40;;;5.87;;
56181;SDS011;51963;46.052;14.544;2023-05-07T05:15:53;7.50;;;5.63;;
56181;SDS011;51963;46.052;14.544;2023-05-07T05:18:20;6.88;;;5.45;;
56181;SDS011;51963;46.052;14.544;2023-05-07T05:20:46;10.57;;;5.75;;
56181;SDS011;51963;46.052;14.544;2023-05-07T05:23:12;11.10;;;6.25;;
56181;SDS011;51963;46.052;14.544;2023-05-07T05:25:41;9.57;;;5.38;;
56181;SDS011;51963;46.052;14.544;2023-05-07T05:28:09;6.78;;;5.05;;
56181;SDS011;51963;46.052;14.544;2023-05-07T05:30:35;7.63;;;5.78;;
56181;SDS011;51963;46.052;14.544;2023-05-07T05:33:01;7.28;;;5.53;;
56181;SDS011;51963;46.052;14.544;2023-05-07T05:35:27;7.47;;;5.30;;
56181;SDS011;51963;46.052;14.544;2023-05-07T05:37:53;8.25;;;5.50;;
56181;SDS011;51963;46.052;14.544;2023-05-07T05:40:19;8.95;;;5.65;;
56181;SDS011;51963;46.052;14.544;2023-05-07T05:42:46;11.32;;;6.10;;
56181;SDS011;51963;46.052;14.544;2023-05-07T05:45:12;8.80;;;5.75;;
56181;SDS011;51963;46.052;14.544;2023-05-07T05:47:38;8.20;;;5.55;;
56181;SDS011;51963;46.052;14.544;2023-05-07T05:50:06;7.88;;;5.90;;
56181;SDS011;51963;46.052;14.544;2023-05-07T05:52:32;8.55;;;5.47;;
56181;SDS011;51963;46.052;14.544;2023-05-07T05:54:58;9.23;;;5.90;;
56181;SDS011;51963;46.052;14.544;2023-05-07T05:57:24;8.15;;;5.55;;
56181;SDS011;51963;46.052;14.544;2023-05-07T05:59:50;7.90;;;5.47;;
56181;SDS011;51963;46.052;14.544;2023-05-07T06:02:16;9.35;;;5.57;;
56181;SDS011;51963;46.052;14.544;2023-05-07T06:04:42;8.73;;;5.80;;
56181;SDS011;51963;46.052;14.544;2023-05-07T06:07:10;7.17;;;5.83;;
56181;SDS011;51963;46.052;14.544;2023-05-07T06:09:35;7.28;;;5.55;;
56181;SDS011;51963;46.052;14.544;2023-05-07T06:12:01;9.50;;;6.25;;
56181;SDS011;51963;46.052;14.544;2023-05-07T06:14:29;10.50;;;5.93;;
56181;SDS011;51963;46.052;14.544;2023-05-07T06:16:55;7.55;;;5.57;;
56181;SDS011;51963;46.052;14.544;2023-05-07T06:19:21;9.88;;;5.35;;
56181;SDS011;51963;46.052;14.544;2023-05-07T06:21:49;7.95;;;5.88;;
56181;SDS011;51963;46.052;14.544;2023-05-07T06:24:15;8.30;;;5.90;;
56181;SDS011;51963;46.052;14.544;2023-05-07T06:26:41;10.32;;;5.82;;
56181;SDS011;51963;46.052;14.544;2023-05-07T06:29:07;8.05;;;5.97;;
56181;SDS011;51963;46.052;14.544;2023-05-07T06:31:33;8.07;;;6.00;;
56181;SDS011;51963;46.052;14.544;2023-05-07T06:34:05;8.73;;;5.93;;
56181;SDS011;51963;46.052;14.544;2023-05-07T06:36:35;10.07;;;6.93;;
56181;SDS011;51963;46.052;14.544;2023-05-07T06:39:07;9.35;;;6.53;;
56181;SDS011;51963;46.052;14.544;2023-05-07T06:41:35;8.32;;;6.10;;
56181;SDS011;51963;46.052;14.544;2023-05-07T06:44:06;11.45;;;6.50;;
56181;SDS011;51963;46.052;14.544;2023-05-07T06:46:42;7.75;;;6.10;;
56181;SDS011;51963;46.052;14.544;2023-05-07T06:49:08;9.02;;;6.00;;
56181;SDS011;51963;46.052;14.544;2023-05-07T06:51:34;9.85;;;5.90;;
56181;SDS011;51963;46.052;14.544;2023-05-07T06:54:02;7.55;;;5.85;;
56181;SDS011;51963;46.052;14.544;2023-05-07T06:56:31;7.95;;;6.03;;
56181;SDS011;51963;46.052;14.544;2023-05-07T06:58:57;5.97;;;5.38;;
56181;SDS011;51963;46.052;14.544;2023-05-07T07:01:24;8.38;;;5.40;;
56181;SDS011;51963;46.052;14.544;2023-05-07T07:03:50;13.20;;;5.30;;
56181;SDS011;51963;46.052;14.544;2023-05-07T07:08:46;7.63;;;5.22;;
56181;SDS011;51963;46.052;14.544;2023-05-07T07:11:15;5.60;;;4.80;;
56181;SDS011;51963;46.052;14.544;2023-05-07T07:13:41;7.82;;;5.35;;
56181;SDS011;51963;46.052;14.544;2023-05-07T07:16:08;8.43;;;5.07;;
56181;SDS011;51963;46.052;14.544;2023-05-07T07:18:34;6.38;;;5.30;;
56181;SDS011;51963;46.052;14.544;2023-05-07T07:21:01;7.53;;;5.53;;
56181;SDS011;51963;46.052;14.544;2023-05-07T07:23:27;9.35;;;6.18;;
56181;SDS011;51963;46.052;14.544;2023-05-07T07:25:53;7.70;;;5.32;;
56181;SDS011;51963;46.052;14.544;2023-05-07T07:28:20;7.90;;;5.22;;
56181;SDS011;51963;46.052;14.544;2023-05-07T07:30:48;7.18;;;5.25;;
56181;SDS011;51963;46.052;14.544;2023-05-07T07:33:18;10.30;;;4.85;;
56181;SDS011;51963;46.052;14.544;2023-05-07T07:35:47;6.57;;;4.57;;
56181;SDS011;51963;46.052;14.544;2023-05-07T07:38:13;8.18;;;5.45;;
56181;SDS011;51963;46.052;14.544;2023-05-07T07:40:39;6.80;;;4.93;;
56181;SDS011;51963;46.052;14.544;2023-05-07T07:43:06;8.10;;;4.45;;
56181;SDS011;51963;46.052;14.544;2023-05-07T07:45:32;6.72;;;4.50;;
56181;SDS011;51963;46.052;14.544;2023-05-07T07:47:59;4.78;;;4.15;;
56181;SDS011;51963;46.052;14.544;2023-05-07T07:50:31;6.65;;;4.40;;
56181;SDS011;51963;46.052;14.544;2023-05-07T07:52:57;5.43;;;4.65;;
56181;SDS011;51963;46.052;14.544;2023-05-07T07:55:24;6.38;;;4.82;;
56181;SDS011;51963;46.052;14.544;2023-05-07T07:57:52;8.00;;;5.93;;
56181;SDS011;51963;46.052;14.544;2023-05-07T08:00:18;7.00;;;4.95;;
56181;SDS011;51963;46.052;14.544;2023-05-07T08:02:50;7.22;;;5.07;;
56181;SDS011;51963;46.052;14.544;2023-05-07T08:05:22;6.63;;;4.13;;
56181;SDS011;51963;46.052;14.544;2023-05-07T08:07:50;7.10;;;4.75;;
56181;SDS011;51963;46.052;14.544;2023-05-07T08:10:19;5.93;;;3.90;;
56181;SDS011;51963;46.052;14.544;2023-05-07T08:12:53;6.13;;;4.00;;
56181;SDS011;51963;46.052;14.544;2023-05-07T08:15:21;5.65;;;4.20;;
56181;SDS011;51963;46.052;14.544;2023-05-07T08:17:51;6.63;;;4.43;;
56181;SDS011;51963;46.052;14.544;2023-05-07T08:20:19;5.88;;;4.13;;
56181;SDS011;51963;46.052;14.544;2023-05-07T08:22:44;7.13;;;4.30;;
56181;SDS011;51963;46.052;14.544;2023-05-07T08:25:10;4.75;;;3.75;;
56181;SDS011;51963;46.052;14.544;2023-05-07T08:27:40;4.70;;;4.03;;
56181;SDS011;51963;46.052;14.544;2023-05-07T08:30:06;5.32;;;3.90;;
56181;SDS011;51963;46.052;14.544;2023-05-07T08:32:32;6.13;;;4.13;;
56181;SDS011;51963;46.052;14.544;2023-05-07T08:34:58;6.18;;;3.83;;
56181;SDS011;51963;46.052;14.544;2023-05-07T08:37:26;5.90;;;3.42;;
56181;SDS011;51963;46.052;14.544;2023-05-07T08:39:52;4.65;;;3.85;;
56181;SDS011;51963;46.052;14.544;2023-05-07T08:42:21;4.72;;;3.53;;
56181;SDS011;51963;46.052;14.544;2023-05-07T08:44:50;4.57;;;3.58;;
56181;SDS011;51963;46.052;14.544;2023-05-07T08:47:25;3.78;;;3.20;;
56181;SDS011;51963;46.052;14.544;2023-05-07T08:49:59;4.70;;;3.35;;
56181;SDS011;51963;46.052;14.544;2023-05-07T08:52:31;3.30;;;3.00;;
56181;SDS011;51963;46.052;14.544;2023-05-07T08:54:58;6.68;;;3.20;;
56181;SDS011;51963;46.052;14.544;2023-05-07T08:57:25;5.72;;;3.83;;
56181;SDS011;51963;46.052;14.544;2023-05-07T08:59:52;4.47;;;3.37;;
56181;SDS011;51963;46.052;14.544;2023-05-07T09:02:18;4.43;;;4.00;;
56181;SDS011;51963;46.052;14.544;2023-05-07T09:04:47;5.15;;;3.80;;
56181;SDS011;51963;46.052;14.544;2023-05-07T09:07:15;5.90;;;3.67;;
56181;SDS011;51963;46.052;14.544;2023-05-07T09:09:43;4.95;;;3.40;;
56181;SDS011;51963;46.052;14.544;2023-05-07T09:12:10;5.13;;;3.70;;
56181;SDS011;51963;46.052;14.544;2023-05-07T09:14:37;5.50;;;3.70;;
56181;SDS011;51963;46.052;14.544;2023-05-07T09:17:04;5.05;;;3.88;;
56181;SDS011;51963;46.052;14.544;2023-05-07T09:19:30;4.20;;;3.72;;
56181;SDS011;51963;46.052;14.544;2023-05-07T09:22:03;4.25;;;3.40;;
56181;SDS011;51963;46.052;14.544;2023-05-07T09:24:40;4.00;;;3.42;;
56181;SDS011;51963;46.052;14.544;2023-05-07T09:27:11;4.68;;;3.80;;
56181;SDS011;51963;46.052;14.544;2023-05-07T09:29:39;3.85;;;3.42;;
56181;SDS011;51963;46.052;14.544;2023-05-07T09:32:05;4.32;;;3.40;;
56181;SDS011;51963;46.052;14.544;2023-05-07T09:34:32;3.90;;;3.50;;
56181;SDS011;51963;46.052;14.544;2023-05-07T09:37:03;4.07;;;3.65;;
56181;SDS011;51963;46.052;14.544;2023-05-07T09:39:39;4.47;;;3.42;;
56181;SDS011;51963;46.052;14.544;2023-05-07T09:42:06;7.22;;;3.42;;
56181;SDS011;51963;46.052;14.544;2023-05-07T09:44:34;5.57;;;3.50;;
56181;SDS011;51963;46.052;14.544;2023-05-07T09:47:02;3.88;;;3.53;;
56181;SDS011;51963;46.052;14.544;2023-05-07T09:49:37;4.28;;;3.75;;
56181;SDS011;51963;46.052;14.544;2023-05-07T09:52:08;5.45;;;3.75;;
56181;SDS011;51963;46.052;14.544;2023-05-07T09:54:39;3.75;;;3.45;;
56181;SDS011;51963;46.052;14.544;2023-05-07T09:57:09;5.70;;;3.80;;
56181;SDS011;51963;46.052;14.544;2023-05-07T09:59:38;5.05;;;3.55;;
56181;SDS011;51963;46.052;14.544;2023-05-07T10:02:09;5.55;;;3.47;;
56181;SDS011;51963;46.052;14.544;2023-05-07T10:04:44;7.32;;;3.80;;
56181;SDS011;51963;46.052;14.544;2023-05-07T10:07:11;4.07;;;3.67;;
56181;SDS011;51963;46.052;14.544;2023-05-07T10:09:39;3.22;;;3.00;;
56181;SDS011;51963;46.052;14.544;2023-05-07T10:12:13;3.97;;;3.40;;
56181;SDS011;51963;46.052;14.544;2023-05-07T10:14:40;3.70;;;3.27;;
56181;SDS011;51963;46.052;14.544;2023-05-07T10:17:06;3.40;;;3.08;;
56181;SDS011;51963;46.052;14.544;2023-05-07T10:19:32;6.18;;;3.40;;
56181;SDS011;51963;46.052;14.544;2023-05-07T10:22:05;3.88;;;3.40;;
56181;SDS011;51963;46.052;14.544;2023-05-07T10:24:36;4.55;;;3.80;;
56181;SDS011;51963;46.052;14.544;2023-05-07T10:27:11;4.18;;;3.53;;
56181;SDS011;51963;46.052;14.544;2023-05-07T10:32:45;3.70;;;3.30;;
56181;SDS011;51963;46.052;14.544;2023-05-07T10:37:49;4.22;;;3.83;;
56181;SDS011;51963;46.052;14.544;2023-05-07T10:42:55;3.60;;;3.30;;
56181;SDS011;51963;46.052;14.544;2023-05-07T10:45:22;4.55;;;3.30;;
56181;SDS011;51963;46.052;14.544;2023-05-07T10:48:07;4.13;;;3.28;;
56181;SDS011;51963;46.052;14.544;2023-05-07T10:50:43;6.97;;;3.55;;
56181;SDS011;51963;46.052;14.544;2023-05-07T10:58:52;5.13;;;3.20;;
56181;SDS011;51963;46.052;14.544;2023-05-07T11:04:24;4.38;;;3.05;;
56181;SDS011;51963;46.052;14.544;2023-05-07T11:07:26;4.00;;;3.07;;
56181;SDS011;51963;46.052;14.544;2023-05-07T11:09:59;3.92;;;3.25;;
56181;SDS011;51963;46.052;14.544;2023-05-07T11:12:59;3.88;;;2.58;;
56181;SDS011;51963;46.052;14.544;2023-05-07T11:15:36;2.95;;;2.75;;
56181;SDS011;51963;46.052;14.544;2023-05-07T11:18:12;3.47;;;3.10;;
56181;SDS011;51963;46.052;14.544;2023-05-07T11:20:48;5.03;;;2.88;;
56181;SDS011;51963;46.052;14.544;2023-05-07T11:23:54;2.90;;;2.70;;
56181;SDS011;51963;46.052;14.544;2023-05-07T11:26:41;3.00;;;2.65;;
56181;SDS011;51963;46.052;14.544;2023-05-07T11:29:10;5.15;;;2.70;;
56181;SDS011;51963;46.052;14.544;2023-05-07T11:31:42;3.58;;;3.00;;
56181;SDS011;51963;46.052;14.544;2023-05-07T11:34:08;3.95;;;2.70;;
56181;SDS011;51963;46.052;14.544;2023-05-07T11:36:41;8.10;;;2.60;;
56181;SDS011;51963;46.052;14.544;2023-05-07T11:39:27;3.15;;;2.80;;
56181;SDS011;51963;46.052;14.544;2023-05-07T11:41:55;6.32;;;3.10;;
56181;SDS011;51963;46.052;14.544;2023-05-07T11:44:21;4.28;;;2.72;;
56181;SDS011;51963;46.052;14.544;2023-05-07T11:46:47;3.22;;;2.90;;
56181;SDS011;51963;46.052;14.544;2023-05-07T11:49:13;5.53;;;2.55;;
56181;SDS011;51963;46.052;14.544;2023-05-07T11:51:39;2.67;;;2.25;;
56181;SDS011;51963;46.052;14.544;2023-05-07T11:54:08;2.55;;;2.35;;
56181;SDS011;51963;46.052;14.544;2023-05-07T11:56:39;3.25;;;2.40;;
56181;SDS011;51963;46.052;14.544;2023-05-07T11:59:05;2.30;;;2.13;;
56181;SDS011;51963;46.052;14.544;2023-05-07T12:01:31;3.00;;;2.20;;
56181;SDS011;51963;46.052;14.544;2023-05-07T12:03:57;2.33;;;2.22;;
56181;SDS011;51963;46.052;14.544;2023-05-07T12:06:22;2.50;;;2.30;;
56181;SDS011;51963;46.052;14.544;2023-05-07T12:08:48;2.55;;;2.35;;
56181;SDS011;51963;46.052;14.544;2023-05-07T12:11:15;3.28;;;2.67;;
56181;SDS011;51963;46.052;14.544;2023-05-07T12:13:45;3.00;;;2.80;;
56181;SDS011;51963;46.052;14.544;2023-05-07T12:16:12;2.83;;;2.58;;
56181;SDS011;51963;46.052;14.544;2023-05-07T12:18:41;2.83;;;2.63;;
56181;SDS011;51963;46.052;14.544;2023-05-07T12:21:08;2.50;;;2.30;;
56181;SDS011;51963;46.052;14.544;2023-05-07T12:23:35;2.95;;;2.15;;
56181;SDS011;51963;46.052;14.544;2023-05-07T12:28:29;3.83;;;2.42;;
56181;SDS011;51963;46.052;14.544;2023-05-07T12:30:56;2.42;;;2.22;;
56181;SDS011;51963;46.052;14.544;2023-05-07T12:33:25;2.72;;;2.38;;
56181;SDS011;51963;46.052;14.544;2023-05-07T12:35:53;2.28;;;2.13;;
56181;SDS011;51963;46.052;14.544;2023-05-07T12:38:20;2.38;;;2.13;;
56181;SDS011;51963;46.052;14.544;2023-05-07T12:40:47;2.30;;;2.17;;
56181;SDS011;51963;46.052;14.544;2023-05-07T12:43:23;2.85;;;2.47;;
56181;SDS011;51963;46.052;14.544;2023-05-07T12:45:55;3.30;;;2.40;;
56181;SDS011;51963;46.052;14.544;2023-05-07T12:48:23;4.15;;;2.30;;
56181;SDS011;51963;46.052;14.544;2023-05-07T12:50:50;4.95;;;2.20;;
56181;SDS011;51963;46.052;14.544;2023-05-07T12:53:16;2.20;;;2.00;;
56181;SDS011;51963;46.052;14.544;2023-05-07T12:55:47;2.30;;;2.10;;
56181;SDS011;51963;46.052;14.544;2023-05-07T12:58:25;2.30;;;2.10;;
56181;SDS011;51963;46.052;14.544;2023-05-07T13:00:52;2.30;;;2.10;;
56181;SDS011;51963;46.052;14.544;2023-05-07T13:03:28;2.13;;;1.93;;
56181;SDS011;51963;46.052;14.544;2023-05-07T13:05:58;3.15;;;1.63;;
56181;SDS011;51963;46.052;14.544;2023-05-07T13:08:31;2.88;;;1.70;;
56181;SDS011;51963;46.052;14.544;2023-05-07T13:11:12;2.75;;;1.73;;
56181;SDS011;51963;46.052;14.544;2023-05-07T13:13:42;3.38;;;2.50;;
56181;SDS011;51963;46.052;14.544;2023-05-07T13:16:09;2.42;;;1.95;;
56181;SDS011;51963;46.052;14.544;2023-05-07T13:21:24;5.60;;;2.75;;
56181;SDS011;51963;46.052;14.544;2023-05-07T13:23:52;3.28;;;2.83;;
56181;SDS011;51963;46.052;14.544;2023-05-07T13:26:18;5.88;;;3.30;;
56181;SDS011;51963;46.052;14.544;2023-05-07T13:28:45;3.50;;;3.20;;
56181;SDS011;51963;46.052;14.544;2023-05-07T13:31:12;3.38;;;3.05;;
56181;SDS011;51963;46.052;14.544;2023-05-07T13:33:41;4.93;;;2.97;;
56181;SDS011;51963;46.052;14.544;2023-05-07T13:36:07;4.97;;;3.10;;
56181;SDS011;51963;46.052;14.544;2023-05-07T13:38:34;3.63;;;3.33;;
56181;SDS011;51963;46.052;14.544;2023-05-07T13:41:00;3.47;;;3.17;;
56181;SDS011;51963;46.052;14.544;2023-05-07T13:43:26;3.47;;;3.17;;
56181;SDS011;51963;46.052;14.544;2023-05-07T13:45:52;4.50;;;3.30;;
56181;SDS011;51963;46.052;14.544;2023-05-07T13:48:18;4.15;;;2.80;;
56181;SDS011;51963;46.052;14.544;2023-05-07T13:50:46;3.63;;;3.30;;
56181;SDS011;51963;46.052;14.544;2023-05-07T13:53:12;3.92;;;3.63;;
56181;SDS011;51963;46.052;14.544;2023-05-07T13:55:38;3.40;;;3.20;;
56181;SDS011;51963;46.052;14.544;2023-05-07T13:58:03;4.78;;;3.10;;
56181;SDS011;51963;46.052;14.544;2023-05-07T14:00:29;3.63;;;2.97;;
56181;SDS011;51963;46.052;14.544;2023-05-07T14:02:57;4.15;;;2.80;;
56181;SDS011;51963;46.052;14.544;2023-05-07T14:05:23;3.00;;;2.80;;
56181;SDS011;51963;46.052;14.544;2023-05-07T14:07:50;5.15;;;2.80;;
56181;SDS011;51963;46.052;14.544;2023-05-07T14:10:17;2.65;;;2.42;;
56181;SDS011;51963;46.052;14.544;2023-05-07T14:12:44;4.88;;;2.53;;
56181;SDS011;51963;46.052;14.544;2023-05-07T14:15:12;2.70;;;2.50;;
56181;SDS011;51963;46.052;14.544;2023-05-07T14:17:41;3.03;;;2.80;;
56181;SDS011;51963;46.052;14.544;2023-05-07T14:20:08;3.72;;;3.15;;
56181;SDS011;51963;46.052;14.544;2023-05-07T14:22:54;3.47;;;3.08;;
56181;SDS011;51963;46.052;14.544;2023-05-07T14:26:22;3.88;;;3.03;;
56181;SDS011;51963;46.052;14.544;2023-05-07T14:38:16;6.18;;;3.20;;
56181;SDS011;51963;46.052;14.544;2023-05-07T14:40:23;3.67;;;3.28;;
56181;SDS011;51963;46.052;14.544;2023-05-07T14:42:49;5.60;;;3.78;;
56181;SDS011;51963;46.052;14.544;2023-05-07T14:45:14;4.03;;;3.65;;
56181;SDS011;51963;46.052;14.544;2023-05-07T14:47:45;3.78;;;3.47;;
56181;SDS011;51963;46.052;14.544;2023-05-07T14:57:43;4.45;;;3.67;;
56181;SDS011;51963;46.052;14.544;2023-05-07T15:00:09;4.10;;;3.70;;
56181;SDS011;51963;46.052;14.544;2023-05-07T15:02:36;3.55;;;3.25;;
56181;SDS011;51963;46.052;14.544;2023-05-07T15:05:02;6.18;;;3.50;;
56181;SDS011;51963;46.052;14.544;2023-05-07T15:07:27;3.97;;;3.30;;
56181;SDS011;51963;46.052;14.544;2023-05-07T15:09:53;3.17;;;2.88;;
56181;SDS011;51963;46.052;14.544;2023-05-07T15:12:19;4.18;;;2.97;;
56181;SDS011;51963;46.052;14.544;2023-05-07T15:14:45;3.35;;;3.08;;
56181;SDS011;51963;46.052;14.544;2023-05-07T15:17:12;3.42;;;3.13;;
56181;SDS011;51963;46.052;14.544;2023-05-07T15:19:40;3.30;;;3.10;;
56181;SDS011;51963;46.052;14.544;2023-05-07T15:22:06;4.07;;;3.65;;
56181;SDS011;51963;46.052;14.544;2023-05-07T15:24:31;4.45;;;4.05;;
56181;SDS011;51963;46.052;14.544;2023-05-07T15:26:57;4.50;;;4.10;;
56181;SDS011;51963;46.052;14.544;2023-05-07T15:29:27;7.28;;;4.18;;